Embarrass, Wisconsin
Current Conditions -  °F | °C
As of 7:55 AM on Monday 22 Dec 2014 (Local Time) from KCLI Reporting Station
Haze Haze  
Wind Chill: -3°   Ceiling: 1200
Heat Index:   Visibility: 4mi
Dew Point:   Wind: 8mph
Humidity: 93%   Direction: 150°SSE
Pressure: 29.89"   Gusts: NA
Location:  44.67°N, 88.71°W
Report Text: KCLI 221355Z AUTO 15007KT 4SM BR OVC012 01/00 A2989 RMK AO2
Loading
Personal Weather Stations






























Interactive Weather Map New forecast layout! Learn more

10-Day Weather Forecast

Advertisements
Track Severe Weather on mobile